Time;durP1;ratioP1;P1;durP2;ratioP2;P2;SDS_P1;SDS_P2;PMS_P1;PMS_P2;Temp;Humidity;BMP_temperature;BMP_pressure;BME280_temperature;BME280_humidity;BME280_pressure;Samples;Min_cycle;Max_cycle;Signal;HPM_P1;HPM_P2
2023/03/03 00:02:09;;;;;;;30.23;17.48;;;2.60;99.90;;;;;;4969492;28;20567;-72
2023/03/03 00:04:55;;;;;;;23.17;16.13;;;2.50;99.90;;;;;;4972971;28;20220;-72
2023/03/03 00:07:43;;;;;;;28.13;16.35;;;2.40;99.90;;;;;;4968268;28;20230;-72
2023/03/03 00:10:29;;;;;;;23.27;16.75;;;2.30;99.90;;;;;;4970006;28;20790;-72
2023/03/03 00:13:17;;;;;;;21.73;14.93;;;2.20;99.90;;;;;;4982703;28;20350;-72
2023/03/03 00:16:14;;;;;;;25.98;16.95;;;2.30;99.90;;;;;;4971429;28;20217;-72
2023/03/03 00:19:01;;;;;;;22.48;15.48;;;2.30;99.90;;;;;;4970496;28;20704;-72
2023/03/03 00:21:47;;;;;;;22.63;14.48;;;2.30;99.90;;;;;;4966685;28;20288;-72
2023/03/03 00:24:37;;;;;;;22.90;15.77;;;2.30;99.90;;;;;;4974025;28;20228;-72
2023/03/03 00:27:30;;;;;;;26.73;15.98;;;2.30;99.90;;;;;;4968379;28;20232;-72
2023/03/03 00:30:22;;;;;;;23.63;15.70;;;2.30;99.90;;;;;;4970708;28;20248;-73
2023/03/03 00:33:26;;;;;;;23.45;15.52;;;2.30;99.90;;;;;;4970530;28;20730;-72
2023/03/03 00:36:30;;;;;;;23.08;13.80;;;2.20;99.90;;;;;;4972124;28;20207;-72
2023/03/03 00:39:27;;;;;;;24.25;14.43;;;2.30;99.90;;;;;;4970840;28;20228;-71
2023/03/03 00:42:14;;;;;;;23.73;15.48;;;2.40;99.90;;;;;;4971065;28;20206;-72
2023/03/03 00:45:00;;;;;;;24.10;14.98;;;2.40;99.90;;;;;;4967053;28;20243;-73
2023/03/03 00:47:46;;;;;;;24.95;15.05;;;2.40;99.90;;;;;;4968773;28;20205;-71
2023/03/03 00:50:35;;;;;;;23.67;15.10;;;2.30;99.90;;;;;;4967420;28;20228;-72
2023/03/03 00:53:22;;;;;;;22.95;14.68;;;2.20;99.90;;;;;;4971024;28;20408;-72
2023/03/03 00:56:07;;;;;;;27.35;14.52;;;2.10;99.90;;;;;;4965878;28;20209;-72
2023/03/03 00:58:53;;;;;;;25.42;14.82;;;2.20;99.90;;;;;;4964043;28;20291;-72
2023/03/03 01:01:38;;;;;;;19.80;14.52;;;2.20;99.90;;;;;;4979187;28;20204;-71
2023/03/03 01:04:24;;;;;;;21.42;14.57;;;2.20;99.90;;;;;;4971101;28;20238;-72
2023/03/03 01:07:11;;;;;;;22.48;13.95;;;2.10;99.90;;;;;;4972514;28;20698;-72
2023/03/03 01:09:56;;;;;;;29.02;15.25;;;2.00;99.90;;;;;;4963662;28;20217;-72
2023/03/03 01:12:42;;;;;;;23.85;15.48;;;1.90;99.90;;;;;;4968172;28;20200;-72
2023/03/03 01:15:28;;;;;;;22.85;15.15;;;1.80;99.90;;;;;;4970960;28;20233;-72
2023/03/03 01:18:14;;;;;;;21.15;14.30;;;1.80;99.90;;;;;;4970328;28;20208;-72
2023/03/03 01:21:01;;;;;;;21.60;14.05;;;1.80;99.90;;;;;;4971798;28;20291;-72
2023/03/03 01:23:48;;;;;;;20.65;15.00;;;1.60;99.90;;;;;;4971850;28;20590;-72
2023/03/03 01:26:34;;;;;;;20.33;14.52;;;1.60;99.90;;;;;;4970636;28;20693;-72
2023/03/03 01:29:19;;;;;;;23.42;16.73;;;1.60;99.90;;;;;;4966207;28;20215;-72
2023/03/03 01:32:05;;;;;;;24.73;16.60;;;1.50;99.90;;;;;;4971508;28;20681;-72
2023/03/03 01:34:51;;;;;;;26.65;15.95;;;1.50;99.90;;;;;;4972638;28;20279;-72
2023/03/03 01:37:36;;;;;;;24.65;14.95;;;1.60;99.90;;;;;;4967764;28;20213;-71
2023/03/03 01:40:25;;;;;;;23.15;15.82;;;1.50;99.90;;;;;;4966056;28;20208;-72
2023/03/03 01:43:14;;;;;;;25.70;17.10;;;1.50;99.90;;;;;;4971681;28;20288;-72
2023/03/03 01:46:26;;;;;;;33.33;17.38;;;1.40;99.90;;;;;;4971690;28;20216;-72
2023/03/03 01:49:15;;;;;;;25.42;16.25;;;1.30;99.90;;;;;;4964525;28;20237;-71
2023/03/03 01:52:04;;;;;;;23.00;16.48;;;1.40;99.90;;;;;;4967889;28;20311;-72
2023/03/03 01:54:55;;;;;;;23.45;15.70;;;1.50;99.90;;;;;;4964145;28;20260;-72
2023/03/03 01:57:46;;;;;;;23.75;16.48;;;1.50;99.90;;;;;;4967557;28;20203;-71
2023/03/03 02:00:34;;;;;;;22.52;16.30;;;1.70;99.90;;;;;;4966459;28;20206;-71
2023/03/03 02:03:22;;;;;;;22.73;16.08;;;1.70;99.90;;;;;;4967369;28;20240;-72
2023/03/03 02:06:12;;;;;;;24.77;16.30;;;1.60;99.90;;;;;;4966150;28;20750;-71
2023/03/03 02:09:01;;;;;;;23.30;15.38;;;1.50;99.90;;;;;;4962772;28;20275;-72
2023/03/03 02:11:52;;;;;;;25.23;16.58;;;1.30;99.90;;;;;;4966272;28;20722;-72
2023/03/03 02:14:39;;;;;;;27.73;17.63;;;1.20;99.90;;;;;;4969914;28;20604;-72
2023/03/03 02:17:25;;;;;;;29.27;16.48;;;1.30;99.90;;;;;;4965443;28;20222;-72
2023/03/03 02:20:17;;;;;;;23.48;16.67;;;1.30;99.90;;;;;;4970438;28;20216;-71
2023/03/03 02:23:10;;;;;;;28.40;15.75;;;1.20;99.90;;;;;;4967205;28;20216;-72
2023/03/03 02:26:13;;;;;;;22.38;15.90;;;1.30;99.90;;;;;;4969868;28;20694;-72
2023/03/03 02:28:58;;;;;;;25.05;16.40;;;1.40;99.90;;;;;;4965621;28;20205;-71
2023/03/03 02:31:44;;;;;;;22.38;15.32;;;1.40;99.90;;;;;;4968345;28;20708;-72
2023/03/03 02:34:30;;;;;;;24.23;15.93;;;1.40;99.90;;;;;;4967017;28;20236;-72
2023/03/03 02:37:16;;;;;;;23.30;15.70;;;1.30;99.90;;;;;;4966720;28;20213;-71
2023/03/03 02:40:02;;;;;;;32.35;16.05;;;1.30;99.90;;;;;;4975410;28;20201;-71
2023/03/03 02:42:52;;;;;;;24.90;16.92;;;1.40;99.90;;;;;;4969333;28;20272;-71
2023/03/03 02:45:43;;;;;;;23.67;15.25;;;1.40;99.90;;;;;;4966345;28;20250;-72
2023/03/03 02:48:28;;;;;;;21.40;15.40;;;1.50;99.90;;;;;;4966557;28;20212;-71
2023/03/03 02:51:14;;;;;;;21.75;15.07;;;1.40;99.90;;;;;;4970754;28;20300;-72
2023/03/03 02:54:00;;;;;;;20.75;15.65;;;1.30;99.90;;;;;;4969274;28;20228;-71
2023/03/03 02:56:46;;;;;;;24.35;16.95;;;1.20;99.90;;;;;;4963878;28;20834;-73
2023/03/03 02:59:33;;;;;;;22.25;14.60;;;1.20;99.90;;;;;;4977004;28;20629;-71
2023/03/03 03:02:19;;;;;;;25.65;14.82;;;1.20;99.90;;;;;;4973419;28;20212;-72
2023/03/03 03:05:05;;;;;;;21.80;15.30;;;1.20;99.90;;;;;;4967183;28;20303;-72
2023/03/03 03:07:51;;;;;;;21.95;15.52;;;1.30;99.90;;;;;;4970124;28;20208;-71
2023/03/03 03:10:37;;;;;;;22.17;15.88;;;1.30;99.90;;;;;;4970097;28;20229;-72
2023/03/03 03:13:23;;;;;;;23.42;16.20;;;1.30;99.90;;;;;;4968276;28;20602;-71
2023/03/03 03:16:10;;;;;;;23.77;14.88;;;1.10;99.90;;;;;;4969274;28;20620;-72
2023/03/03 03:18:56;;;;;;;18.60;13.15;;;1.10;99.90;;;;;;4970145;28;20256;-72
2023/03/03 03:21:41;;;;;;;22.27;15.65;;;1.00;99.90;;;;;;4970507;28;20241;-72
2023/03/03 03:24:27;;;;;;;26.15;16.13;;;0.90;99.90;;;;;;4974459;28;20281;-71
2023/03/03 03:27:12;;;;;;;22.95;15.93;;;0.70;99.90;;;;;;4970470;28;20229;-71
2023/03/03 03:29:58;;;;;;;24.88;15.85;;;0.70;99.90;;;;;;4972543;28;20200;-72
2023/03/03 03:32:45;;;;;;;29.58;17.23;;;0.70;99.90;;;;;;4975258;28;20209;-71
2023/03/03 03:35:30;;;;;;;22.23;14.35;;;0.70;99.90;;;;;;4968051;28;20331;-71
2023/03/03 03:38:17;;;;;;;26.48;16.20;;;0.80;99.90;;;;;;4972645;28;20757;-71
2023/03/03 03:41:03;;;;;;;24.63;15.43;;;0.80;99.90;;;;;;4972861;28;20223;-71
2023/03/03 03:43:48;;;;;;;26.02;15.65;;;0.80;99.90;;;;;;4975453;28;20233;-72
2023/03/03 03:46:34;;;;;;;25.40;16.27;;;0.60;99.90;;;;;;4963076;28;20205;-71
2023/03/03 03:49:21;;;;;;;19.85;15.55;;;0.60;99.90;;;;;;4972325;28;20208;-72
2023/03/03 03:52:07;;;;;;;19.85;14.43;;;0.60;99.90;;;;;;4970561;28;20227;-71
2023/03/03 03:54:52;;;;;;;22.80;16.20;;;0.60;99.90;;;;;;4971212;28;20209;-72
2023/03/03 03:57:37;;;;;;;18.40;14.95;;;0.60;99.90;;;;;;4968675;28;20217;-71
2023/03/03 04:00:23;;;;;;;25.02;15.13;;;0.70;99.90;;;;;;4973975;28;20413;-72
2023/03/03 04:03:09;;;;;;;24.38;15.93;;;0.80;99.90;;;;;;4971311;28;20239;-71
2023/03/03 04:05:56;;;;;;;22.08;15.65;;;0.90;99.90;;;;;;4971536;28;20203;-73
2023/03/03 04:08:42;;;;;;;24.00;14.82;;;0.90;99.90;;;;;;4969937;28;20212;-71
2023/03/03 04:11:27;;;;;;;22.33;15.63;;;0.90;99.90;;;;;;4969759;28;20226;-72
2023/03/03 04:14:13;;;;;;;27.60;16.42;;;1.00;99.90;;;;;;4972390;28;20248;-72
2023/03/03 04:16:59;;;;;;;23.65;15.70;;;1.00;99.90;;;;;;4966311;28;20678;-72
2023/03/03 04:19:45;;;;;;;24.60;15.27;;;0.90;99.90;;;;;;4970013;28;20276;-72
2023/03/03 04:22:34;;;;;;;23.30;15.70;;;0.70;99.90;;;;;;4967960;28;20208;-72
2023/03/03 04:25:20;;;;;;;22.35;13.98;;;0.70;99.90;;;;;;4969342;28;20244;-71
2023/03/03 04:28:07;;;;;;;23.92;15.00;;;0.60;99.90;;;;;;4969794;28;20231;-72
2023/03/03 04:30:53;;;;;;;24.20;15.27;;;0.50;99.90;;;;;;4962727;28;20283;-71
2023/03/03 04:33:38;;;;;;;26.27;16.30;;;0.60;99.90;;;;;;4969682;28;20630;-71
2023/03/03 04:36:24;;;;;;;24.55;16.52;;;0.60;99.90;;;;;;4964398;28;20204;-71
2023/03/03 04:39:11;;;;;;;19.63;14.40;;;0.70;99.90;;;;;;4976257;28;20284;-72
2023/03/03 04:41:57;;;;;;;21.92;15.52;;;0.70;99.90;;;;;;4970304;28;20232;-72
2023/03/03 04:44:43;;;;;;;22.30;16.85;;;0.70;99.90;;;;;;4970507;28;20825;-71
2023/03/03 04:47:29;;;;;;;23.55;15.13;;;0.70;99.90;;;;;;4967646;28;20299;-71
2023/03/03 04:50:15;;;;;;;26.15;16.73;;;0.60;99.90;;;;;;4971840;28;20693;-72
2023/03/03 04:53:00;;;;;;;27.85;16.83;;;0.60;99.90;;;;;;4969426;28;20349;-72
2023/03/03 04:55:50;;;;;;;24.27;16.83;;;0.50;99.90;;;;;;4965159;28;20224;-72
2023/03/03 04:58:35;;;;;;;23.60;14.95;;;0.60;99.90;;;;;;4970028;28;20281;-72
2023/03/03 05:01:21;;;;;;;22.38;15.90;;;0.60;99.90;;;;;;4972514;28;20204;-71
2023/03/03 05:04:07;;;;;;;23.70;15.35;;;0.50;99.90;;;;;;4971378;28;20639;-71
2023/03/03 05:06:53;;;;;;;23.13;16.23;;;0.40;99.90;;;;;;4966863;28;20216;-71
2023/03/03 05:09:39;;;;;;;22.73;15.70;;;0.30;99.90;;;;;;4968044;28;20830;-72
2023/03/03 05:12:27;;;;;;;27.10;15.48;;;0.40;99.90;;;;;;4969451;28;20287;-72
2023/03/03 05:15:13;;;;;;;28.13;15.18;;;0.40;99.90;;;;;;4963565;28;20205;-72
2023/03/03 05:17:58;;;;;;;23.17;16.35;;;0.50;99.90;;;;;;4970018;28;20208;-71
2023/03/03 05:20:44;;;;;;;24.92;16.55;;;0.30;99.90;;;;;;4972302;28;20325;-71
2023/03/03 05:23:30;;;;;;;21.88;15.75;;;0.30;99.90;;;;;;4967443;28;20231;-71
2023/03/03 05:26:15;;;;;;;24.15;14.85;;;0.40;99.90;;;;;;4969664;28;20216;-71
2023/03/03 05:29:02;;;;;;;23.75;15.88;;;0.30;99.90;;;;;;4973548;28;20215;-72
2023/03/03 05:31:48;;;;;;;25.98;14.95;;;0.20;99.90;;;;;;4973743;28;20595;-72
2023/03/03 05:34:34;;;;;;;24.08;15.77;;;0.20;99.90;;;;;;4967405;28;20297;-72
2023/03/03 05:37:19;;;;;;;26.42;16.60;;;0.10;99.90;;;;;;4973901;28;20216;-72
2023/03/03 05:40:06;;;;;;;24.05;16.20;;;0.20;99.90;;;;;;4980226;28;20331;-73
2023/03/03 05:42:52;;;;;;;30.27;17.85;;;0.20;99.90;;;;;;4969125;28;20356;-72
2023/03/03 05:45:39;;;;;;;22.92;16.23;;;0.30;99.90;;;;;;4965922;28;20216;-72
2023/03/03 05:48:25;;;;;;;22.42;15.60;;;0.20;99.90;;;;;;4969413;28;20421;-72
2023/03/03 05:51:11;;;;;;;35.88;18.77;;;0.10;99.90;;;;;;4964613;28;20472;-72
2023/03/03 05:53:57;;;;;;;27.08;14.95;;;0.10;99.90;;;;;;4969505;28;20247;-72
2023/03/03 05:56:42;;;;;;;25.90;17.60;;;0.10;99.90;;;;;;4967888;28;20205;-72
2023/03/03 05:59:28;;;;;;;22.45;15.50;;;0.00;99.90;;;;;;4970431;28;20205;-72
2023/03/03 06:02:15;;;;;;;26.48;15.90;;;0.00;99.90;;;;;;4969980;28;20196;-71
2023/03/03 06:05:01;;;;;;;22.40;17.00;;;0.10;99.90;;;;;;4961043;28;20228;-72
2023/03/03 06:07:46;;;;;;;29.02;18.25;;;0.10;99.90;;;;;;4963693;28;20299;-71
2023/03/03 06:10:32;;;;;;;28.50;16.30;;;0.10;99.90;;;;;;4966707;28;20212;-71
2023/03/03 06:13:17;;;;;;;28.25;18.60;;;0.10;99.90;;;;;;4969593;28;20364;-71
2023/03/03 06:16:03;;;;;;;24.95;16.10;;;0.20;99.90;;;;;;4967099;28;20276;-72
2023/03/03 06:18:51;;;;;;;24.48;16.42;;;0.30;99.90;;;;;;4966357;28;20291;-72
2023/03/03 06:21:36;;;;;;;24.33;15.23;;;0.40;99.90;;;;;;4971711;28;20809;-72
2023/03/03 06:24:24;;;;;;;24.48;16.13;;;0.50;99.90;;;;;;4965763;28;20230;-71
2023/03/03 06:27:10;;;;;;;30.95;16.77;;;0.50;99.90;;;;;;4969403;28;20227;-72
2023/03/03 06:29:56;;;;;;;27.10;16.20;;;0.50;99.90;;;;;;4970301;28;20572;-72
2023/03/03 06:32:41;;;;;;;32.20;17.30;;;0.60;99.90;;;;;;4970221;28;20547;-72
2023/03/03 06:35:28;;;;;;;30.52;18.05;;;0.60;99.90;;;;;;4966278;28;20284;-72
2023/03/03 06:38:14;;;;;;;22.70;16.45;;;0.70;99.90;;;;;;4967811;28;20563;-72
2023/03/03 06:41:00;;;;;;;27.90;16.60;;;0.70;99.90;;;;;;4967792;28;20349;-72
2023/03/03 06:43:46;;;;;;;25.98;15.98;;;0.80;99.90;;;;;;4968268;28;20302;-72
2023/03/03 06:46:32;;;;;;;23.70;15.70;;;0.70;99.90;;;;;;4966413;28;20343;-72
2023/03/03 06:49:18;;;;;;;30.73;18.13;;;0.60;99.90;;;;;;4967723;28;20220;-72
2023/03/03 06:52:13;;;;;;;29.15;19.00;;;0.70;99.90;;;;;;4966888;28;20229;-72
2023/03/03 06:55:01;;;;;;;27.65;17.27;;;0.70;99.90;;;;;;4962119;28;20207;-71
2023/03/03 06:57:47;;;;;;;25.13;16.90;;;0.80;99.90;;;;;;4973098;28;20236;-72
2023/03/03 07:00:33;;;;;;;24.67;17.33;;;0.80;99.90;;;;;;4968158;28;20267;-72
2023/03/03 07:03:22;;;;;;;26.00;18.20;;;0.80;99.90;;;;;;4965644;28;20235;-72
2023/03/03 07:06:20;;;;;;;30.40;17.77;;;0.80;99.90;;;;;;4965722;28;20216;-72
2023/03/03 07:09:23;;;;;;;28.05;19.80;;;0.90;99.90;;;;;;4967903;28;20690;-72
2023/03/03 07:12:13;;;;;;;28.63;19.08;;;1.00;99.90;;;;;;4967913;28;20236;-71
2023/03/03 07:15:14;;;;;;;35.88;19.25;;;1.20;99.90;;;;;;4966426;28;20204;-72
2023/03/03 07:18:01;;;;;;;29.63;20.25;;;1.30;99.90;;;;;;4969438;28;20288;-70
2023/03/03 07:20:46;;;;;;;27.90;19.02;;;1.30;99.90;;;;;;4971801;28;20207;-71
2023/03/03 07:23:41;;;;;;;36.28;20.50;;;1.40;99.90;;;;;;4965203;28;20233;-72
2023/03/03 07:26:31;;;;;;;32.22;20.15;;;1.50;99.90;;;;;;4968686;28;20822;-71
2023/03/03 07:29:23;;;;;;;31.85;19.20;;;1.60;99.90;;;;;;4968107;28;20929;-71
2023/03/03 07:32:22;;;;;;;34.40;21.30;;;1.60;99.90;;;;;;4966532;28;20220;-72
2023/03/03 07:35:29;;;;;;;32.10;20.73;;;1.70;99.90;;;;;;4963830;28;20783;-72
2023/03/03 07:38:25;;;;;;;32.97;21.10;;;1.80;99.90;;;;;;4966155;28;20578;-72
2023/03/03 07:41:14;;;;;;;34.92;22.30;;;1.90;99.90;;;;;;4963977;28;20215;-71
2023/03/03 07:44:05;;;;;;;39.28;23.80;;;1.90;99.90;;;;;;4962597;28;20605;-71
2023/03/03 07:46:51;;;;;;;38.00;22.95;;;2.00;99.90;;;;;;4968642;28;20316;-71
2023/03/03 07:49:38;;;;;;;33.88;23.00;;;2.10;99.90;;;;;;4971001;28;20205;-70
2023/03/03 07:52:31;;;;;;;46.00;23.80;;;2.20;99.90;;;;;;4972648;28;20245;-71
2023/03/03 07:55:27;;;;;;;33.85;22.52;;;2.20;99.90;;;;;;4973315;28;20276;-70
2023/03/03 07:58:21;;;;;;;36.83;23.30;;;2.30;99.90;;;;;;4974658;28;20208;-72
2023/03/03 08:04:00;;;;;;;40.13;26.30;;;2.40;99.90;;;;;;5100934;22;20943;-70
2023/03/03 08:06:51;;;;;;;38.85;26.00;;;2.70;99.90;;;;;;5063583;28;20694;-70
2023/03/03 08:09:46;;;;;;;39.28;25.23;;;3.00;99.90;;;;;;5061579;28;20609;-71
2023/03/03 08:12:40;;;;;;;42.00;25.33;;;3.10;99.90;;;;;;5061381;28;20686;-71
2023/03/03 08:15:32;;;;;;;45.50;24.58;;;3.20;99.90;;;;;;5071492;28;20350;-70
2023/03/03 08:18:24;;;;;;;39.17;25.23;;;3.30;99.90;;;;;;5075855;28;20699;-70
2023/03/03 08:21:12;;;;;;;42.28;24.73;;;3.40;99.90;;;;;;5069949;28;20217;-70
2023/03/03 08:23:58;;;;;;;39.53;23.48;;;3.60;99.90;;;;;;5064210;28;20759;-70
2023/03/03 08:26:44;;;;;;;42.30;25.95;;;3.70;99.90;;;;;;5059532;28;20328;-71
2023/03/03 08:29:29;;;;;;;40.58;24.33;;;3.80;99.90;;;;;;5058738;28;20197;-71
2023/03/03 08:32:15;;;;;;;37.03;24.73;;;4.00;99.90;;;;;;5058640;28;20254;-70
2023/03/03 08:35:01;;;;;;;38.50;25.13;;;4.20;99.90;;;;;;5058763;28;20741;-71
2023/03/03 08:37:48;;;;;;;35.70;23.85;;;4.40;99.90;;;;;;5056767;28;20201;-70
2023/03/03 08:40:33;;;;;;;37.67;24.23;;;4.50;99.90;;;;;;5055269;28;20218;-70
2023/03/03 08:43:21;;;;;;;37.27;25.30;;;4.70;99.90;;;;;;5061838;28;20496;-70
2023/03/03 08:46:09;;;;;;;38.93;26.00;;;4.80;99.90;;;;;;5074992;28;20429;-70
2023/03/03 08:48:54;;;;;;;41.90;27.17;;;5.00;99.90;;;;;;5069606;28;20437;-71
2023/03/03 08:51:40;;;;;;;47.30;27.40;;;5.00;99.90;;;;;;5054836;28;20509;-70
2023/03/03 08:54:27;;;;;;;40.40;27.23;;;5.00;99.90;;;;;;5072838;28;20444;-70
2023/03/03 08:57:12;;;;;;;42.50;27.30;;;5.00;99.90;;;;;;5070719;28;20436;-71
2023/03/03 08:59:58;;;;;;;47.37;27.97;;;4.90;99.90;;;;;;5074915;28;20808;-70
2023/03/03 09:02:44;;;;;;;43.80;28.03;;;4.90;99.90;;;;;;5065910;28;20459;-70
2023/03/03 09:05:30;;;;;;;47.37;28.77;;;5.00;99.90;;;;;;5070535;28;20438;-70
2023/03/03 09:08:15;;;;;;;48.60;28.98;;;4.90;99.90;;;;;;5063840;28;20411;-70
2023/03/03 09:11:02;;;;;;;44.83;29.37;;;4.80;99.90;;;;;;5060799;28;20211;-71
2023/03/03 09:13:52;;;;;;;59.33;34.27;;;4.80;99.90;;;;;;5071703;28;20440;-70
2023/03/03 09:16:39;;;;;;;50.00;31.03;;;4.90;99.90;;;;;;5051224;28;20434;-70
2023/03/03 09:19:28;;;;;;;48.70;32.10;;;5.00;99.90;;;;;;5054055;28;20420;-71
2023/03/03 09:22:20;;;;;;;48.20;30.07;;;5.10;99.90;;;;;;5049191;28;20449;-70
2023/03/03 09:25:21;;;;;;;54.03;30.30;;;5.10;99.90;;;;;;5065625;28;20452;-70
2023/03/03 09:28:23;;;;;;;53.90;32.77;;;5.20;99.90;;;;;;5060558;28;20921;-71
2023/03/03 09:31:22;;;;;;;44.83;29.77;;;5.20;99.90;;;;;;5049166;28;20445;-70
2023/03/03 09:34:18;;;;;;;54.33;33.37;;;5.40;99.90;;;;;;5064937;28;20444;-70
2023/03/03 09:37:19;;;;;;;52.13;29.30;;;5.60;99.90;;;;;;5060420;28;20945;-70
2023/03/03 09:40:30;;;;;;;44.83;29.50;;;5.80;99.90;;;;;;5054198;28;20467;-70
2023/03/03 09:43:26;;;;;;;47.50;28.70;;;5.90;99.90;;;;;;5056929;28;21046;-71
2023/03/03 09:46:21;;;;;;;49.13;29.07;;;6.00;99.90;;;;;;5055293;28;20436;-70
2023/03/03 09:49:17;;;;;;;46.50;28.35;;;6.00;99.90;;;;;;5062111;28;20574;-70
2023/03/03 09:52:23;;;;;;;43.40;29.00;;;6.10;99.90;;;;;;5054202;28;20214;-70
2023/03/03 09:55:20;;;;;;;45.03;29.13;;;6.10;99.90;;;;;;5059159;28;20989;-70
2023/03/03 09:58:35;;;;;;;42.63;27.97;;;6.20;99.90;;;;;;5055104;28;20506;-70
2023/03/03 10:01:42;;;;;;;42.90;27.33;;;6.30;99.80;;;;;;5050488;28;20436;-71
2023/03/03 10:05:10;;;;;;;38.47;25.07;;;6.40;98.90;;;;;;5056374;28;20476;-70
2023/03/03 10:08:17;;;;;;;53.60;27.37;;;6.40;98.70;;;;;;5056404;28;20766;-71
2023/03/03 10:11:13;;;;;;;39.53;27.07;;;6.60;97.60;;;;;;5045556;28;20466;-70
2023/03/03 10:14:27;;;;;;;47.13;29.00;;;6.60;97.20;;;;;;5059118;28;21244;-71
2023/03/03 10:17:27;;;;;;;45.03;29.00;;;6.70;95.80;;;;;;5062555;28;20431;-71
2023/03/03 10:20:36;;;;;;;50.97;31.10;;;6.90;94.50;;;;;;5051749;28;20532;-71
2023/03/03 10:23:39;;;;;;;51.13;31.40;;;7.00;93.60;;;;;;5058066;28;20559;-71
2023/03/03 10:26:53;;;;;;;53.90;31.87;;;7.20;92.40;;;;;;5055289;28;20432;-70
2023/03/03 10:29:48;;;;;;;49.20;30.33;;;7.40;91.80;;;;;;5044963;28;20481;-71
2023/03/03 10:32:44;;;;;;;46.63;30.10;;;7.50;88.90;;;;;;5052993;28;20592;-71
2023/03/03 10:36:17;;;;;;;47.87;29.40;;;7.50;89.90;;;;;;5051589;28;20434;-71
2023/03/03 10:39:23;;;;;;;51.40;32.43;;;7.80;89.10;;;;;;5029278;28;20516;-71
2023/03/03 10:42:37;;;;;;;51.17;31.90;;;8.00;86.30;;;;;;5062516;28;20580;-70
2023/03/03 10:45:45;;;;;;;53.50;33.17;;;8.10;84.10;;;;;;5051610;28;20464;-70
2023/03/03 10:48:52;;;;;;;44.63;29.00;;;8.40;83.60;;;;;;5052031;28;21014;-71
2023/03/03 10:51:48;;;;;;;50.07;31.30;;;8.50;79.60;;;;;;5060000;28;20516;-70
2023/03/03 10:54:50;;;;;;;43.13;28.03;;;8.60;77.10;;;;;;5053751;28;20481;-70
2023/03/03 10:57:45;;;;;;;45.53;29.73;;;8.70;76.40;;;;;;5051280;28;20432;-71
2023/03/03 11:00:36;;;;;;;42.37;27.83;;;8.70;77.00;;;;;;5054018;28;21022;-71
2023/03/03 11:04:04;;;;;;;41.30;27.43;;;8.80;76.90;;;;;;5059274;28;20514;-70
2023/03/03 11:06:58;;;;;;;48.50;28.67;;;8.90;73.30;;;;;;5057277;28;20440;-70
2023/03/03 11:10:14;;;;;;;46.80;27.50;;;9.00;72.70;;;;;;5042036;28;21005;-71
2023/03/03 11:13:12;;;;;;;40.10;26.47;;;8.90;71.20;;;;;;5051238;28;20407;-70
2023/03/03 11:16:17;;;;;;;44.93;27.33;;;9.20;72.30;;;;;;5061948;28;20403;-71
2023/03/03 11:19:12;;;;;;;49.90;26.60;;;9.50;69.00;;;;;;5047413;28;20424;-71
2023/03/03 11:22:12;;;;;;;38.43;24.43;;;9.60;67.00;;;;;;5057891;28;20989;-71
2023/03/03 11:25:08;;;;;;;43.33;27.80;;;9.60;64.20;;;;;;5048921;28;20421;-70
2023/03/03 11:28:35;;;;;;;44.77;28.93;;;9.70;63.70;;;;;;5055433;28;20450;-71
2023/03/03 11:31:30;;;;;;;46.60;30.03;;;9.70;62.30;;;;;;4978752;28;20408;-70
2023/03/03 11:34:29;;;;;;;45.10;26.93;;;9.70;63.50;;;;;;5061948;28;20546;-71
2023/03/03 11:37:21;;;;;;;43.73;27.43;;;9.80;64.10;;;;;;5054557;28;20551;-71
2023/03/03 11:40:14;;;;;;;38.93;25.80;;;9.80;63.90;;;;;;5053195;28;20787;-70
2023/03/03 11:43:06;;;;;;;45.67;27.40;;;9.80;63.00;;;;;;5057608;28;21040;-71
2023/03/03 11:45:55;;;;;;;47.37;27.47;;;9.90;62.60;;;;;;5054150;28;20447;-71
2023/03/03 11:48:51;;;;;;;44.80;28.20;;;10.00;62.60;;;;;;5037437;28;20528;-71
2023/03/03 11:51:48;;;;;;;43.37;27.27;;;10.10;62.30;;;;;;5050715;28;20449;-71
2023/03/03 11:54:42;;;;;;;46.30;28.53;;;10.00;62.20;;;;;;5055507;28;20948;-71
2023/03/03 11:57:33;;;;;;;41.07;26.20;;;10.20;62.80;;;;;;5050676;28;21016;-71
2023/03/03 12:00:28;;;;;;;51.10;26.93;;;10.30;60.80;;;;;;5062979;28;20472;-71
2023/03/03 12:03:21;;;;;;;43.30;26.90;;;10.40;60.70;;;;;;5065001;28;21093;-71
2023/03/03 12:06:17;;;;;;;41.47;27.43;;;10.60;60.90;;;;;;5058473;28;20405;-71
2023/03/03 12:09:31;;;;;;;39.13;26.03;;;10.80;58.60;;;;;;5040055;28;20562;-71
2023/03/03 12:12:22;;;;;;;42.37;27.57;;;11.00;58.10;;;;;;5052869;28;20427;-70
2023/03/03 12:15:19;;;;;;;52.70;27.80;;;11.00;55.60;;;;;;5048101;28;20470;-71
2023/03/03 12:18:28;;;;;;;40.07;25.83;;;11.30;55.20;;;;;;5039032;28;20522;-70
2023/03/03 12:21:34;;;;;;;42.90;27.50;;;11.40;50.80;;;;;;5042429;28;20452;-71
2023/03/03 12:24:34;;;;;;;39.27;24.57;;;11.40;50.30;;;;;;5047797;28;20476;-71
2023/03/03 12:27:28;;;;;;;41.50;26.90;;;11.50;50.90;;;;;;5042508;28;20451;-71
2023/03/03 12:30:21;;;;;;;44.33;26.57;;;11.40;50.60;;;;;;5053360;28;20560;-71
2023/03/03 12:33:17;;;;;;;45.37;28.17;;;11.40;49.90;;;;;;5049869;28;20413;-71
2023/03/03 12:36:13;;;;;;;45.97;27.20;;;11.40;50.80;;;;;;5042513;28;20462;-71
2023/03/03 12:39:04;;;;;;;39.43;27.30;;;11.40;49.90;;;;;;5044984;28;20869;-71
2023/03/03 12:42:00;;;;;;;41.33;26.43;;;11.50;51.40;;;;;;5052807;28;20517;-71
2023/03/03 12:44:54;;;;;;;40.23;26.60;;;11.60;49.30;;;;;;5052048;28;20992;-71
2023/03/03 12:47:46;;;;;;;47.03;27.30;;;11.60;46.60;;;;;;5042941;28;20876;-70
2023/03/03 12:50:42;;;;;;;55.00;27.20;;;11.70;48.70;;;;;;5054312;28;20821;-71
2023/03/03 12:53:40;;;;;;;43.53;26.87;;;11.90;47.00;;;;;;5051840;28;20475;-72
2023/03/03 12:56:34;;;;;;;45.07;25.13;;;12.10;44.90;;;;;;5057126;28;20422;-71
2023/03/03 12:59:28;;;;;;;42.07;25.60;;;12.30;42.20;;;;;;5058050;28;20498;-71
2023/03/03 13:02:36;;;;;;;39.33;25.07;;;12.20;42.00;;;;;;5058500;28;20481;-71
2023/03/03 13:05:27;;;;;;;42.47;24.60;;;12.10;39.50;;;;;;5050854;28;21045;-73
2023/03/03 13:08:33;;;;;;;36.83;24.87;;;12.00;41.00;;;;;;5044171;28;21049;-71
2023/03/03 13:11:46;;;;;;;39.07;25.87;;;12.10;39.50;;;;;;5064829;28;20494;-72
2023/03/03 13:14:39;;;;;;;43.83;25.90;;;12.20;40.50;;;;;;5064099;28;20444;-72
2023/03/03 13:17:30;;;;;;;39.47;23.60;;;12.50;40.10;;;;;;5044285;28;21082;-72
2023/03/03 13:20:24;;;;;;;35.97;22.80;;;12.60;38.00;;;;;;5069868;28;20406;-72
2023/03/03 13:23:18;;;;;;;37.27;23.07;;;12.70;37.50;;;;;;5061463;28;20425;-72
2023/03/03 13:26:09;;;;;;;37.33;23.77;;;12.90;36.20;;;;;;5058581;28;20545;-73
2023/03/03 13:29:03;;;;;;;37.90;24.00;;;13.00;36.00;;;;;;5054476;28;20432;-72
2023/03/03 13:31:51;;;;;;;36.83;25.43;;;13.20;34.00;;;;;;5065662;28;20409;-71
2023/03/03 13:34:49;;;;;;;37.17;23.57;;;13.30;33.30;;;;;;5049523;28;20450;-72
2023/03/03 13:37:42;;;;;;;40.70;23.20;;;13.20;33.00;;;;;;5044920;28;20797;-73
2023/03/03 13:40:43;;;;;;;35.13;23.97;;;13.20;33.40;;;;;;5057315;28;20398;-72
2023/03/03 13:43:34;;;;;;;38.13;24.03;;;13.40;32.50;;;;;;5054785;28;20970;-72
2023/03/03 13:46:33;;;;;;;38.40;23.63;;;13.40;32.50;;;;;;5058762;28;20460;-72
2023/03/03 13:49:35;;;;;;;34.50;22.70;;;13.50;32.60;;;;;;5062083;28;20533;-72
2023/03/03 13:52:24;;;;;;;34.97;23.27;;;13.40;30.80;;;;;;5055433;28;20407;-72
2023/03/03 13:55:21;;;;;;;31.80;22.53;;;13.60;31.00;;;;;;5060198;28;20453;-72
2023/03/03 13:58:15;;;;;;;35.97;22.70;;;13.60;30.30;;;;;;5055580;28;20424;-71
2023/03/03 14:01:06;;;;;;;42.23;23.73;;;13.80;29.60;;;;;;5059248;28;20431;-72
2023/03/03 14:04:01;;;;;;;40.60;22.50;;;13.90;30.40;;;;;;5061852;28;20457;-72
2023/03/03 14:06:54;;;;;;;29.53;20.47;;;14.20;29.80;;;;;;5047686;28;20456;-73
2023/03/03 14:09:52;;;;;;;32.57;22.10;;;14.40;28.60;;;;;;5050122;28;20397;-72
2023/03/03 14:12:44;;;;;;;32.90;21.30;;;14.60;28.00;;;;;;5058293;28;20424;-73
2023/03/03 14:15:33;;;;;;;33.37;22.60;;;15.00;27.60;;;;;;5044388;28;20428;-73
2023/03/03 14:18:26;;;;;;;38.13;24.00;;;15.30;26.80;;;;;;5065859;28;20619;-73
2023/03/03 14:21:18;;;;;;;31.07;22.60;;;15.40;25.90;;;;;;5054245;28;20411;-72
2023/03/03 14:24:11;;;;;;;34.90;23.60;;;15.30;26.30;;;;;;5046486;28;20470;-73
2023/03/03 14:27:00;;;;;;;37.67;23.00;;;15.50;25.90;;;;;;5041758;28;20942;-72
2023/03/03 14:29:46;;;;;;;32.80;21.30;;;15.70;24.80;;;;;;5055305;28;20453;-72
2023/03/03 14:32:31;;;;;;;35.00;23.20;;;15.70;25.20;;;;;;5035778;28;20474;-72
2023/03/03 14:35:20;;;;;;;35.20;21.90;;;15.80;25.10;;;;;;5042367;28;20778;-72
2023/03/03 14:38:12;;;;;;;35.97;23.47;;;15.80;24.80;;;;;;5046250;28;20543;-72
2023/03/03 14:41:11;;;;;;;38.03;22.70;;;15.70;23.60;;;;;;5046447;28;20421;-73
2023/03/03 14:44:00;;;;;;;35.13;22.87;;;15.80;23.80;;;;;;5040541;28;20505;-71